Terminal Aerodrome Forecast
Issued by NWS Charleston, WV

Current Version | Previous Version | Graphics & Text | Print | Product List | Glossary On
Versions: 1 2 3 4 5 6 7 8 9 10 11 12 13 14 15 16 17 18 19 20 21
903
FTUS41 KRLX 240539
TAFPKB
TAF
KPKB 240539Z 2406/2506 00000KT P6SM SKC
     FM240900 00000KT 2SM BR FEW045
     FM241100 00000KT 4SM BR FEW045
     FM241200 00000KT P6SM FEW045
     FM241600 26006KT P6SM FEW045=

USA.gov is the U.S. government's official web portal to all federal, state and local government web resources and services.